Time;durP1;ratioP1;P1;durP2;ratioP2;P2;SDS_P1;SDS_P2;PMS_P1;PMS_P2;Temp;Humidity;BMP_temperature;BMP_pressure;BME280_temperature;BME280_humidity;BME280_pressure;Samples;Min_cycle;Max_cycle;Signal;HPM_P1;HPM_P2
2021/12/10 00:02:06;;;;;;;13.93;7.65;;;;;;;2.17;100.00;98551.22;5023175;28;20053;-86
2021/12/10 00:04:35;;;;;;;12.88;7.43;;;;;;;2.12;100.00;98539.03;5022801;28;20044;-86
2021/12/10 00:07:06;;;;;;;11.70;7.00;;;;;;;2.12;100.00;98546.94;5022844;28;20033;-86
2021/12/10 00:09:37;;;;;;;13.32;7.30;;;;;;;2.11;100.00;98534.66;5024194;28;20018;-86
2021/12/10 00:12:09;;;;;;;14.85;6.97;;;;;;;2.16;100.00;98525.81;5021299;28;20093;-86
2021/12/10 00:14:36;;;;;;;13.70;7.70;;;;;;;2.12;100.00;98510.06;5022930;28;20095;-86
2021/12/10 00:17:03;;;;;;;13.52;7.57;;;;;;;2.12;100.00;98509.19;5022182;28;20108;-86
2021/12/10 00:19:43;;;;;;;14.93;7.68;;;;;;;2.11;100.00;98503.06;5015755;28;20026;-86
2021/12/10 00:22:37;;;;;;;12.10;7.43;;;;;;;2.16;100.00;98510.00;5015814;28;20033;-85
2021/12/10 00:25:07;;;;;;;12.43;7.40;;;;;;;2.20;100.00;98509.00;5017906;28;20029;-84
2021/12/10 00:27:33;;;;;;;13.35;7.18;;;;;;;2.24;100.00;98497.53;5017264;28;20513;-85
2021/12/10 00:30:08;;;;;;;13.20;7.20;;;;;;;2.17;100.00;98498.53;5017289;28;20053;-86
2021/12/10 00:32:43;;;;;;;10.55;7.10;;;;;;;2.16;100.00;98495.06;5019108;28;20030;-86
2021/12/10 00:35:19;;;;;;;12.68;6.78;;;;;;;2.15;100.00;98497.72;5018519;28;20085;-85
2021/12/10 00:37:45;;;;;;;10.30;6.60;;;;;;;2.13;100.00;98492.50;5018697;28;20033;-86
2021/12/10 00:40:13;;;;;;;10.15;6.85;;;;;;;2.18;100.00;98487.13;5020302;28;20080;-86
2021/12/10 00:42:38;;;;;;;9.88;6.57;;;;;;;2.11;100.00;98481.16;5020610;28;20030;-86
2021/12/10 00:45:07;;;;;;;12.88;7.10;;;;;;;2.09;100.00;98483.81;5019704;28;20137;-86
2021/12/10 00:47:32;;;;;;;9.88;5.97;;;;;;;2.12;100.00;98481.09;5021747;28;20024;-87
2021/12/10 00:49:58;;;;;;;10.07;6.53;;;;;;;2.10;100.00;98485.53;5022674;28;20061;-86
2021/12/10 00:52:23;;;;;;;10.95;6.50;;;;;;;2.10;100.00;98485.53;5020332;28;20052;-86
2021/12/10 00:54:50;;;;;;;10.65;6.60;;;;;;;2.08;100.00;98483.84;5018578;28;20033;-86
2021/12/10 00:57:17;;;;;;;10.40;6.13;;;;;;;2.08;100.00;98474.19;5014947;28;20026;-86
2021/12/10 00:59:44;;;;;;;12.48;6.85;;;;;;;2.09;100.00;98472.41;5016102;28;20467;-84
2021/12/10 01:02:13;;;;;;;9.77;6.28;;;;;;;2.10;100.00;98467.13;5017077;28;20030;-84
2021/12/10 01:04:44;;;;;;;11.27;6.53;;;;;;;2.18;100.00;98479.22;5016058;28;20032;-86
2021/12/10 01:07:14;;;;;;;10.20;6.32;;;;;;;2.12;100.00;98478.47;5019513;28;20030;-86
2021/12/10 01:09:42;;;;;;;12.90;6.65;;;;;;;2.12;100.00;98472.31;5018122;28;20021;-86
2021/12/10 01:12:21;;;;;;;10.18;6.18;;;;;;;2.07;100.00;98469.81;5019081;28;20049;-86
2021/12/10 01:25:39;;;;;;;12.20;6.75;;;;;;;2.04;100.00;98453.22;5027977;28;20048;-87
2021/12/10 01:28:07;;;;;;;9.98;6.68;;;;;;;2.02;100.00;98450.63;5027329;28;20042;-87
2021/12/10 01:30:36;;;;;;;10.18;6.50;;;;;;;2.04;100.00;98443.56;5025215;28;20108;-87
2021/12/10 01:33:13;;;;;;;11.48;6.85;;;;;;;2.02;100.00;98442.72;5027139;28;20045;-87
2021/12/10 01:35:42;;;;;;;10.40;6.78;;;;;;;2.06;100.00;98439.09;5026056;28;20057;-87
2021/12/10 01:38:11;;;;;;;11.13;6.82;;;;;;;2.10;100.00;98443.41;5025537;28;20022;-87
2021/12/10 01:40:40;;;;;;;11.88;6.80;;;;;;;2.08;100.00;98432.06;5024888;28;20483;-88
2021/12/10 01:43:11;;;;;;;12.65;6.95;;;;;;;2.09;100.00;98425.88;5035610;28;20021;-87
2021/12/10 01:45:48;;;;;;;11.20;6.43;;;;;;;2.08;100.00;98418.91;5039580;28;20022;-87
2021/12/10 01:48:20;;;;;;;10.40;6.60;;;;;;;2.10;100.00;98417.09;5034408;28;20057;-87
2021/12/10 01:50:47;;;;;;;10.43;6.32;;;;;;;2.08;100.00;98410.13;5031001;28;20099;-87
2021/12/10 01:53:15;;;;;;;11.13;6.63;;;;;;;2.03;100.00;98420.78;5027572;28;20052;-86
2021/12/10 01:55:45;;;;;;;9.98;6.22;;;;;;;2.12;100.00;98420.53;5026943;28;20061;-87
2021/12/10 01:58:13;;;;;;;10.38;6.40;;;;;;;2.06;100.00;98414.56;5025803;28;20056;-87
2021/12/10 02:00:42;;;;;;;13.85;7.03;;;;;;;2.02;100.00;98400.59;5027070;28;20028;-87
2021/12/10 02:03:07;;;;;;;10.85;7.03;;;;;;;2.04;100.00;98414.59;5026849;28;20097;-87
2021/12/10 02:05:34;;;;;;;10.45;6.28;;;;;;;2.03;100.00;98412.88;5025821;28;20037;-87
2021/12/10 02:08:00;;;;;;;12.05;6.80;;;;;;;1.97;100.00;98408.63;5018483;28;20032;-86
2021/12/10 02:10:28;;;;;;;11.00;6.60;;;;;;;1.96;100.00;98409.53;5020225;28;20026;-87
2021/12/10 02:12:54;;;;;;;10.18;6.35;;;;;;;2.01;100.00;98401.53;5024080;28;20026;-86
2021/12/10 02:15:21;;;;;;;9.48;6.07;;;;;;;2.00;100.00;98402.41;5024833;28;20037;-87
2021/12/10 02:17:50;;;;;;;10.65;6.47;;;;;;;2.01;100.00;98401.53;5020413;28;20030;-86
2021/12/10 02:20:23;;;;;;;12.02;6.20;;;;;;;2.02;100.00;98403.25;5014260;28;20034;-86
2021/12/10 02:22:49;;;;;;;10.55;5.70;;;;;;;2.07;100.00;98404.00;5012804;28;20025;-86
2021/12/10 02:25:18;;;;;;;9.52;5.50;;;;;;;2.00;100.00;98400.66;5013905;28;20406;-86
2021/12/10 02:27:43;;;;;;;10.40;5.88;;;;;;;2.03;100.00;98394.44;5013539;28;20028;-86
2021/12/10 02:30:11;;;;;;;9.27;5.70;;;;;;;2.04;100.00;98390.91;5020306;28;20021;-87
2021/12/10 02:32:36;;;;;;;10.48;6.13;;;;;;;2.09;100.00;98383.75;5014998;28;20036;-86
2021/12/10 02:35:04;;;;;;;8.63;5.95;;;;;;;2.12;100.00;98378.41;5013674;28;20021;-86
2021/12/10 02:37:30;;;;;;;8.73;5.40;;;;;;;2.12;100.00;98373.13;5013145;28;20029;-86
2021/12/10 02:39:55;;;;;;;9.20;5.68;;;;;;;2.01;100.00;98375.19;5013063;28;20021;-86
2021/12/10 02:42:20;;;;;;;10.68;6.25;;;;;;;1.99;100.00;98369.97;5014659;28;20157;-85
2021/12/10 02:44:46;;;;;;;10.60;5.45;;;;;;;1.96;100.00;98367.41;5013351;28;20022;-86
2021/12/10 02:47:11;;;;;;;9.60;5.75;;;;;;;1.98;100.00;98360.34;5014503;28;20028;-86
2021/12/10 02:49:37;;;;;;;8.80;5.43;;;;;;;1.93;100.00;98350.84;5014493;28;20018;-85
2021/12/10 02:52:04;;;;;;;9.18;5.22;;;;;;;1.94;100.00;98347.28;5014344;28;20033;-85
2021/12/10 02:54:36;;;;;;;10.95;5.95;;;;;;;2.00;100.00;98336.59;5017461;28;20026;-86
2021/12/10 02:57:07;;;;;;;9.80;5.10;;;;;;;1.89;100.00;98335.13;5017538;28;20021;-86
2021/12/10 02:59:33;;;;;;;10.82;5.38;;;;;;;1.86;100.00;98339.59;5016988;28;20048;-86
2021/12/10 03:01:59;;;;;;;8.73;5.13;;;;;;;1.87;100.00;98336.06;5018000;28;20088;-86
2021/12/10 03:04:26;;;;;;;8.55;5.07;;;;;;;1.87;100.00;98331.66;5016984;28;20033;-86
2021/12/10 03:06:56;;;;;;;9.85;5.95;;;;;;;1.83;100.00;98337.91;5017497;28;20054;-86
2021/12/10 03:09:23;;;;;;;8.40;5.43;;;;;;;1.78;100.00;98327.50;5018331;28;20501;-85
2021/12/10 03:11:49;;;;;;;9.70;5.43;;;;;;;1.84;100.00;98321.22;5017203;28;20076;-85
2021/12/10 03:14:19;;;;;;;9.27;5.38;;;;;;;1.86;100.00;98319.41;5017875;28;20061;-83
2021/12/10 03:16:46;;;;;;;8.52;5.32;;;;;;;1.86;100.00;98315.91;5018841;28;20449;-86
2021/12/10 03:19:11;;;;;;;9.65;5.43;;;;;;;1.76;100.00;98312.63;5018246;28;20022;-87
2021/12/10 03:21:38;;;;;;;11.23;5.78;;;;;;;1.85;100.00;98307.16;5016996;28;20033;-86
2021/12/10 03:24:06;;;;;;;8.35;5.05;;;;;;;1.87;100.00;98294.81;5017291;28;20022;-85
2021/12/10 03:26:32;;;;;;;8.13;5.13;;;;;;;1.77;100.00;98295.97;5018300;28;20018;-86
2021/12/10 03:28:58;;;;;;;10.38;5.63;;;;;;;1.83;100.00;98295.78;5018797;28;20109;-86
2021/12/10 03:31:25;;;;;;;10.48;6.05;;;;;;;1.89;100.00;98293.00;5017663;28;20022;-87
2021/12/10 03:33:54;;;;;;;8.18;5.25;;;;;;;1.66;100.00;98299.72;5018454;28;20102;-86
2021/12/10 03:36:19;;;;;;;10.18;6.00;;;;;;;1.61;100.00;98290.22;5017774;28;20446;-87
2021/12/10 03:38:46;;;;;;;10.95;6.45;;;;;;;1.55;100.00;98280.72;5018694;28;20471;-84
2021/12/10 03:41:12;;;;;;;10.32;6.22;;;;;;;1.62;100.00;98287.56;5016857;28;20036;-85
2021/12/10 03:43:39;;;;;;;10.38;6.65;;;;;;;1.63;100.00;98291.91;5017018;28;20060;-86
2021/12/10 03:46:05;;;;;;;12.57;6.53;;;;;;;1.53;100.00;98286.03;5017540;28;20034;-85
2021/12/10 03:48:34;;;;;;;11.57;6.55;;;;;;;1.61;100.00;98283.19;5017856;28;20022;-86
2021/12/10 03:51:03;;;;;;;10.15;6.60;;;;;;;1.54;100.00;98281.63;5017581;28;20049;-85
2021/12/10 03:53:28;;;;;;;11.00;6.93;;;;;;;1.54;100.00;98271.13;5019922;28;20022;-86
2021/12/10 03:56:01;;;;;;;12.02;6.88;;;;;;;1.54;100.00;98281.63;5024034;28;20190;-86
2021/12/10 03:58:27;;;;;;;13.30;6.88;;;;;;;1.52;100.00;98272.94;5022986;28;20442;-86
2021/12/10 04:00:54;;;;;;;14.50;6.53;;;;;;;1.57;100.00;98271.03;5026692;28;20021;-85
2021/12/10 04:03:22;;;;;;;11.38;6.65;;;;;;;1.53;100.00;98269.38;5025169;28;20017;-86
2021/12/10 04:05:49;;;;;;;10.20;6.35;;;;;;;1.55;100.00;98276.31;5018957;28;20030;-84
2021/12/10 04:08:14;;;;;;;13.40;7.13;;;;;;;1.52;100.00;98268.50;5019516;28;20021;-86
2021/12/10 04:10:40;;;;;;;10.40;6.32;;;;;;;1.53;100.00;98272.00;5018636;28;20402;-86
2021/12/10 04:13:07;;;;;;;12.45;6.38;;;;;;;1.47;100.00;98269.53;5018582;28;20026;-84
2021/12/10 04:15:35;;;;;;;14.05;6.45;;;;;;;1.47;100.00;98262.50;5017654;28;20482;-83
2021/12/10 04:18:00;;;;;;;10.93;6.35;;;;;;;1.57;100.00;98260.50;5018346;28;20046;-83
2021/12/10 04:20:29;;;;;;;11.10;6.05;;;;;;;1.58;100.00;98267.50;5018542;28;20413;-84
2021/12/10 04:22:55;;;;;;;8.73;5.18;;;;;;;1.52;100.00;98257.13;5019322;28;20486;-83
2021/12/10 04:25:24;;;;;;;12.38;6.25;;;;;;;1.47;100.00;98253.75;5019799;28;20022;-83
2021/12/10 04:27:52;;;;;;;11.80;6.18;;;;;;;1.34;100.00;98249.66;5018778;28;20022;-83
2021/12/10 04:30:18;;;;;;;8.75;5.65;;;;;;;1.31;100.00;98239.25;5018129;28;20036;-84
2021/12/10 04:32:45;;;;;;;8.93;5.22;;;;;;;1.30;100.00;98247.16;5017510;28;20538;-83
2021/12/10 04:35:12;;;;;;;12.02;5.90;;;;;;;1.19;100.00;98245.66;5017522;28;20029;-83
2021/12/10 04:37:38;;;;;;;9.70;5.90;;;;;;;1.20;100.00;98236.88;5018735;28;20026;-82
2021/12/10 04:40:06;;;;;;;10.32;5.78;;;;;;;1.09;100.00;98238.88;5018018;28;20026;-83
2021/12/10 04:42:32;;;;;;;9.75;5.80;;;;;;;0.98;100.00;98242.63;5017778;28;20021;-85
2021/12/10 04:44:59;;;;;;;11.15;5.45;;;;;;;0.88;100.00;98242.00;5017150;28;20493;-84
2021/12/10 04:47:26;;;;;;;10.25;5.70;;;;;;;0.84;100.00;98247.38;5018259;28;20030;-83
2021/12/10 04:49:52;;;;;;;12.25;6.28;;;;;;;0.86;100.00;98248.19;5018132;28;20029;-83
2021/12/10 04:52:19;;;;;;;10.23;5.55;;;;;;;0.90;100.00;98236.72;5017852;28;20367;-84
2021/12/10 04:54:44;;;;;;;9.05;5.50;;;;;;;0.95;100.00;98250.63;5017188;28;20486;-82
2021/12/10 04:57:10;;;;;;;12.70;6.35;;;;;;;0.97;100.00;98240.94;5015134;28;20117;-88
2021/12/10 04:59:38;;;;;;;10.95;6.10;;;;;;;0.98;100.00;98242.63;5015106;28;20022;-87
2021/12/10 05:02:07;;;;;;;11.98;6.35;;;;;;;1.10;100.00;98236.25;5017695;28;20113;-85
2021/12/10 05:04:32;;;;;;;8.38;4.88;;;;;;;1.14;100.00;98233.50;5017763;28;20030;-85
2021/12/10 05:06:59;;;;;;;8.95;5.15;;;;;;;1.17;100.00;98225.56;5017688;28;20028;-85
2021/12/10 05:09:25;;;;;;;9.85;5.20;;;;;;;1.10;100.00;98230.97;5016316;28;20057;-84
2021/12/10 05:11:52;;;;;;;10.90;5.38;;;;;;;1.25;100.00;98220.97;5015394;28;20160;-86
2021/12/10 05:14:18;;;;;;;13.05;6.22;;;;;;;1.18;100.00;98230.78;5015051;28;20467;-85
2021/12/10 05:16:48;;;;;;;11.73;5.97;;;;;;;1.19;100.00;98211.47;5016225;28;20125;-86
2021/12/10 05:19:17;;;;;;;10.63;6.22;;;;;;;1.22;100.00;98214.03;5015970;28;20029;-85
2021/12/10 05:21:47;;;;;;;10.15;6.00;;;;;;;1.21;100.00;98204.41;5017686;28;20438;-85
2021/12/10 05:24:13;;;;;;;12.45;6.45;;;;;;;1.13;100.00;98202.88;5016194;28;20022;-85
2021/12/10 05:26:39;;;;;;;12.05;6.47;;;;;;;1.07;100.00;98196.00;5017761;28;20172;-86
2021/12/10 05:29:06;;;;;;;10.75;6.38;;;;;;;1.10;100.00;98185.41;5015924;28;20494;-85
2021/12/10 05:31:32;;;;;;;10.55;5.93;;;;;;;1.07;100.00;98193.38;5018007;28;20026;-85
2021/12/10 05:33:57;;;;;;;10.98;5.80;;;;;;;0.98;100.00;98190.06;5018100;28;20537;-84
2021/12/10 05:36:23;;;;;;;11.07;6.40;;;;;;;1.02;100.00;98185.63;5017367;28;20053;-85
2021/12/10 05:38:48;;;;;;;12.90;6.22;;;;;;;0.93;100.00;98188.47;5021816;28;20023;-82
2021/12/10 05:41:14;;;;;;;10.15;6.00;;;;;;;0.89;100.00;98185.06;5022200;28;20029;-85
2021/12/10 05:43:41;;;;;;;11.73;6.20;;;;;;;0.99;100.00;98186.56;5020693;28;20028;-84
2021/12/10 05:46:08;;;;;;;10.80;6.60;;;;;;;0.88;100.00;98183.31;5016903;28;20036;-84
2021/12/10 05:48:33;;;;;;;14.13;6.60;;;;;;;0.74;100.00;98175.78;5015995;28;20526;-83
2021/12/10 05:50:59;;;;;;;14.07;6.38;;;;;;;0.68;100.00;98166.28;5014458;28;20030;-83
2021/12/10 05:53:25;;;;;;;12.93;6.57;;;;;;;0.72;100.00;98162.66;5014281;28;20059;-84
2021/12/10 05:55:50;;;;;;;13.15;6.82;;;;;;;0.65;100.00;98167.22;5017414;28;20376;-84
2021/12/10 05:58:16;;;;;;;11.63;6.55;;;;;;;0.69;100.00;98161.88;5017502;28;20029;-84
2021/12/10 06:00:52;;;;;;;11.55;6.28;;;;;;;0.72;100.00;98154.78;5017715;28;20040;-83
2021/12/10 06:03:18;;;;;;;11.52;5.90;;;;;;;0.61;100.00;98151.56;5016493;28;20477;-84
2021/12/10 06:05:46;;;;;;;10.73;6.30;;;;;;;0.59;100.00;98142.88;5019112;28;20081;-83
2021/12/10 06:08:13;;;;;;;11.25;6.38;;;;;;;0.62;100.00;98145.41;5017032;28;20083;-83
2021/12/10 06:10:39;;;;;;;11.15;6.32;;;;;;;0.60;100.00;98139.31;5016769;28;20026;-84
2021/12/10 06:13:05;;;;;;;13.93;6.43;;;;;;;0.53;100.00;98135.97;5015929;28;20018;-83
2021/12/10 06:15:30;;;;;;;13.95;6.72;;;;;;;0.54;100.00;98133.31;5018791;28;20025;-84
2021/12/10 06:17:56;;;;;;;11.93;5.93;;;;;;;0.48;100.00;98133.47;5018387;28;20449;-84
2021/12/10 06:20:26;;;;;;;9.70;5.80;;;;;;;0.58;100.00;98134.13;5015967;28;20032;-85
2021/12/10 06:22:52;;;;;;;10.02;5.32;;;;;;;0.63;100.00;98120.88;5015771;28;20034;-84
2021/12/10 06:25:18;;;;;;;9.27;5.72;;;;;;;0.56;100.00;98120.16;5014249;28;20032;-83
2021/12/10 06:27:44;;;;;;;11.07;5.90;;;;;;;0.54;100.00;98111.47;5013327;28;20029;-81
2021/12/10 06:30:16;;;;;;;11.30;6.00;;;;;;;0.46;100.00;98109.03;5013579;28;20052;-83
2021/12/10 06:32:43;;;;;;;12.75;5.68;;;;;;;0.49;100.00;98118.59;5015268;28;20045;-83
2021/12/10 06:35:10;;;;;;;12.73;5.80;;;;;;;0.50;100.00;98105.41;5014964;28;20026;-82
2021/12/10 06:37:37;;;;;;;12.55;6.50;;;;;;;0.45;100.00;98107.28;5015338;28;20033;-84
2021/12/10 06:40:05;;;;;;;11.02;5.97;;;;;;;0.43;100.00;98103.84;5014950;28;20058;-86
2021/12/10 06:42:30;;;;;;;10.60;5.95;;;;;;;0.54;100.00;98112.28;5015945;28;20026;-85
2021/12/10 06:44:56;;;;;;;10.32;5.63;;;;;;;0.50;100.00;98105.41;5016245;28;20513;-84
2021/12/10 06:47:21;;;;;;;11.02;6.00;;;;;;;0.46;100.00;98098.50;5014240;28;20115;-83
2021/12/10 06:49:46;;;;;;;10.73;5.78;;;;;;;0.44;100.00;98090.66;5013361;28;20049;-83
2021/12/10 06:52:12;;;;;;;12.20;6.25;;;;;;;0.45;100.00;98102.03;5013505;28;20442;-83
2021/12/10 06:54:39;;;;;;;11.55;6.28;;;;;;;0.50;100.00;98089.66;5014484;28;20022;-83
2021/12/10 06:57:05;;;;;;;14.43;6.28;;;;;;;0.38;100.00;98097.81;5016708;28;20109;-84
2021/12/10 06:59:30;;;;;;;16.92;6.25;;;;;;;0.41;100.00;98095.13;5019809;28;20057;-85
2021/12/10 07:01:55;;;;;;;11.10;5.82;;;;;;;0.46;100.00;98098.50;5015239;28;20062;-84
2021/12/10 07:04:41;;;;;;;10.07;5.95;;;;;;;0.42;100.00;98094.22;5016532;28;20037;-81
2021/12/10 07:07:08;;;;;;;10.90;6.38;;;;;;;0.41;100.00;98090.72;5022077;28;20042;-82
2021/12/10 07:09:35;;;;;;;13.93;6.80;;;;;;;0.35;100.00;98084.75;5021480;28;20033;-83
2021/12/10 07:12:01;;;;;;;11.13;5.78;;;;;;;0.43;100.00;98088.06;5021847;28;20037;-82
2021/12/10 07:14:26;;;;;;;11.68;6.40;;;;;;;0.41;100.00;98087.25;5023074;28;20033;-82
2021/12/10 07:16:56;;;;;;;13.57;6.78;;;;;;;0.32;100.00;98085.69;5024139;28;20026;-83
2021/12/10 07:19:22;;;;;;;12.48;6.25;;;;;;;0.34;100.00;98089.16;5023604;28;20394;-83
2021/12/10 07:21:48;;;;;;;11.73;6.05;;;;;;;0.29;100.00;98091.88;5020445;28;20026;-83
2021/12/10 07:24:17;;;;;;;13.90;6.50;;;;;;;0.28;100.00;98090.19;5013289;28;20053;-83
2021/12/10 07:26:43;;;;;;;13.63;6.43;;;;;;;0.32;100.00;98090.94;5013818;28;20026;-83
2021/12/10 07:29:09;;;;;;;12.98;6.85;;;;;;;0.33;100.00;98088.31;5016258;28;20025;-83
2021/12/10 07:31:36;;;;;;;12.10;6.60;;;;;;;0.29;100.00;98078.75;5016670;28;20022;-83
2021/12/10 07:34:02;;;;;;;12.88;6.13;;;;;;;0.28;100.00;98084.06;5020077;28;20026;-83
2021/12/10 07:36:28;;;;;;;12.98;6.60;;;;;;;0.26;100.00;98086.69;5022017;28;20033;-84
2021/12/10 07:38:56;;;;;;;12.70;6.88;;;;;;;0.30;100.00;98082.25;5023363;28;20026;-84
2021/12/10 07:41:22;;;;;;;13.25;6.63;;;;;;;0.32;100.00;98081.31;5025205;28;20041;-84
2021/12/10 07:43:47;;;;;;;12.70;6.47;;;;;;;0.33;100.00;98074.31;5027234;28;20467;-83
2021/12/10 07:46:13;;;;;;;13.02;6.50;;;;;;;0.31;100.00;98069.06;5025917;28;20040;-83
2021/12/10 07:48:39;;;;;;;11.73;6.53;;;;;;;0.29;100.00;98064.75;5025626;28;20482;-84
2021/12/10 07:51:11;;;;;;;11.02;6.13;;;;;;;0.32;100.00;98065.56;5025254;28;20029;-83
2021/12/10 07:53:39;;;;;;;11.23;6.75;;;;;;;0.39;100.00;98068.91;5024868;28;20046;-84
2021/12/10 07:56:06;;;;;;;12.00;6.28;;;;;;;0.46;100.00;98072.25;5025946;28;20021;-84
2021/12/10 07:58:33;;;;;;;12.20;6.25;;;;;;;0.52;100.00;98069.47;5022655;28;20026;-81
2021/12/10 08:01:00;;;;;;;12.82;6.60;;;;;;;0.53;100.00;98063.31;5017383;28;20393;-84
2021/12/10 08:03:25;;;;;;;10.90;6.38;;;;;;;0.52;100.00;98063.34;5017266;28;20036;-83
2021/12/10 08:05:52;;;;;;;13.95;6.13;;;;;;;0.59;100.00;98066.69;5022543;28;20034;-84
2021/12/10 08:08:17;;;;;;;13.20;5.95;;;;;;;0.67;100.00;98064.75;5024435;28;20053;-83
2021/12/10 08:10:46;;;;;;;10.75;5.68;;;;;;;0.70;100.00;98059.38;5028662;28;20053;-83
2021/12/10 08:13:12;;;;;;;11.27;5.43;;;;;;;0.78;100.00;98052.16;5028914;28;20025;-84
2021/12/10 08:15:38;;;;;;;14.15;6.40;;;;;;;0.75;100.00;98052.25;5028613;28;20048;-84
2021/12/10 08:18:04;;;;;;;11.35;5.82;;;;;;;0.81;100.00;98050.38;5026460;28;20045;-84
2021/12/10 08:20:30;;;;;;;10.95;6.03;;;;;;;0.84;100.00;98051.16;5026023;28;20030;-83
2021/12/10 08:22:56;;;;;;;11.48;6.50;;;;;;;0.89;100.00;98040.53;5027544;28;20041;-83
2021/12/10 08:25:23;;;;;;;12.73;6.72;;;;;;;0.86;100.00;98049.34;5025575;28;20076;-82
2021/12/10 08:27:49;;;;;;;13.60;7.47;;;;;;;0.97;100.00;98050.81;5025555;28;20509;-84
2021/12/10 08:30:18;;;;;;;10.73;6.35;;;;;;;0.98;100.00;98047.31;5024307;28;20018;-83
2021/12/10 08:32:45;;;;;;;11.10;5.88;;;;;;;0.99;100.00;98047.25;5023637;28;20076;-83
2021/12/10 08:35:14;;;;;;;10.13;5.75;;;;;;;1.05;100.00;98042.72;5024542;28;20037;-83
2021/12/10 08:37:41;;;;;;;10.65;5.25;;;;;;;1.08;100.00;98047.91;5018703;28;20033;-83
2021/12/10 08:40:09;;;;;;;9.63;5.55;;;;;;;1.11;100.00;98043.41;5015625;28;20042;-83
2021/12/10 08:42:34;;;;;;;12.45;5.85;;;;;;;1.09;100.00;98039.09;5017805;28;20029;-83
2021/12/10 08:45:05;;;;;;;10.80;5.47;;;;;;;1.13;99.49;98043.41;5017269;28;20029;-83
2021/12/10 08:47:40;;;;;;;10.57;5.45;;;;;;;1.17;99.65;98036.25;5022160;28;20026;-84
2021/12/10 08:50:08;;;;;;;9.98;5.30;;;;;;;1.33;99.35;98042.84;5025119;28;20032;-83
2021/12/10 08:52:33;;;;;;;10.68;5.07;;;;;;;1.37;98.15;98040.97;5023865;28;20040;-83
2021/12/10 08:54:59;;;;;;;12.48;5.40;;;;;;;1.48;98.09;98030.13;5023389;28;20021;-83
2021/12/10 08:57:26;;;;;;;8.57;4.95;;;;;;;1.49;97.01;98029.25;5023570;28;20034;-83
2021/12/10 08:59:52;;;;;;;11.10;4.85;;;;;;;1.53;97.10;98030.84;5023296;28;20029;-84
2021/12/10 09:02:18;;;;;;;11.13;5.18;;;;;;;1.61;97.62;98035.91;5022892;28;20390;-83
2021/12/10 09:04:44;;;;;;;10.23;5.45;;;;;;;1.63;96.46;98036.72;5023716;28;20026;-83
2021/12/10 09:07:13;;;;;;;9.98;4.90;;;;;;;1.67;95.85;98025.19;5023720;28;20026;-84
2021/12/10 09:09:43;;;;;;;10.02;4.95;;;;;;;1.67;96.39;98025.19;5023444;28;20477;-84
2021/12/10 09:12:17;;;;;;;9.75;4.90;;;;;;;1.75;95.45;98027.56;5022546;28;20061;-84
2021/12/10 09:14:48;;;;;;;8.43;4.43;;;;;;;1.77;95.53;98030.19;5021230;28;20030;-84
2021/12/10 09:17:20;;;;;;;12.40;5.35;;;;;;;1.78;96.22;98023.97;5023957;28;20025;-84
2021/12/10 09:19:45;;;;;;;12.25;4.82;;;;;;;1.78;95.52;98026.63;5025199;28;20082;-84
2021/12/10 09:22:11;;;;;;;16.23;4.90;;;;;;;1.80;94.83;98030.09;5024146;28;20022;-83
2021/12/10 09:24:38;;;;;;;10.27;5.07;;;;;;;1.85;95.12;98022.91;5025972;28;20033;-85
2021/12/10 09:27:05;;;;;;;8.23;4.25;;;;;;;1.86;94.75;98027.25;5027868;28;20080;-83
2021/12/10 09:29:35;;;;;;;12.40;4.72;;;;;;;1.87;94.84;98025.50;5026498;28;20050;-84
2021/12/10 09:32:02;;;;;;;11.45;4.97;;;;;;;1.97;94.51;98031.31;5025597;28;20022;-84
2021/12/10 09:34:28;;;;;;;8.30;4.47;;;;;;;1.96;94.34;98026.97;5025332;28;20030;-84
2021/12/10 09:36:54;;;;;;;9.13;4.38;;;;;;;2.09;93.69;98025.66;5027019;28;20390;-84
2021/12/10 09:39:20;;;;;;;10.35;4.90;;;;;;;2.15;93.71;98023.75;5024388;28;20021;-84
2021/12/10 09:41:46;;;;;;;10.68;4.90;;;;;;;2.11;93.21;98025.63;5025195;28;20097;-84
2021/12/10 09:44:15;;;;;;;9.38;4.70;;;;;;;2.23;91.90;98027.00;5026171;28;20029;-84
2021/12/10 09:46:41;;;;;;;13.00;4.32;;;;;;;2.30;92.22;98022.38;5023890;28;20022;-83
2021/12/10 09:49:09;;;;;;;7.63;4.07;;;;;;;2.17;91.90;98027.19;5023187;28;20029;-84
2021/12/10 09:51:43;;;;;;;10.35;4.10;;;;;;;2.30;92.17;98025.88;5015335;28;20033;-83
2021/12/10 09:54:11;;;;;;;8.35;3.85;;;;;;;2.34;92.66;98030.16;5015158;28;20116;-83
2021/12/10 09:56:45;;;;;;;6.78;3.33;;;;;;;2.39;91.45;98019.47;5017232;28;20033;-84
2021/12/10 09:59:11;;;;;;;9.55;3.65;;;;;;;2.56;90.63;98024.16;5017371;28;20029;-84
2021/12/10 10:01:42;;;;;;;8.43;3.55;;;;;;;2.58;88.66;98020.63;5023882;28;20093;-84
2021/12/10 10:04:10;;;;;;;7.32;3.33;;;;;;;2.65;89.13;98024.78;5024019;28;20076;-83
2021/12/10 10:06:43;;;;;;;9.20;3.63;;;;;;;2.71;89.10;98021.03;5025416;28;20076;-84
2021/12/10 10:09:11;;;;;;;7.68;3.33;;;;;;;2.78;88.16;98023.41;5022348;28;20018;-84
2021/12/10 10:11:37;;;;;;;6.65;3.10;;;;;;;2.90;88.11;98018.63;5027008;28;20033;-84
2021/12/10 10:14:04;;;;;;;4.93;3.03;;;;;;;2.98;88.09;98013.09;5028488;28;20026;-84
2021/12/10 10:16:30;;;;;;;8.65;3.40;;;;;;;3.05;87.04;98008.44;5026610;28;20378;-84
2021/12/10 10:18:57;;;;;;;7.90;3.10;;;;;;;3.20;85.53;98010.53;5026605;28;20037;-84
2021/12/10 10:21:35;;;;;;;9.07;3.22;;;;;;;3.21;85.50;98014.91;5026228;28;20077;-84
2021/12/10 10:24:03;;;;;;;8.95;3.15;;;;;;;3.36;85.14;98012.59;5023731;28;20495;-84
2021/12/10 10:26:43;;;;;;;5.28;2.90;;;;;;;3.31;85.30;98019.84;5015923;28;20044;-84
2021/12/10 10:29:15;;;;;;;11.35;3.20;;;;;;;3.49;85.25;98022.69;5015947;28;20052;-82
2021/12/10 10:31:49;;;;;;;6.65;3.22;;;;;;;3.64;84.94;98016.84;5014663;28;20030;-84
2021/12/10 10:34:18;;;;;;;7.20;3.30;;;;;;;3.73;84.03;98006.84;5015265;28;20032;-84
2021/12/10 10:36:44;;;;;;;5.57;3.28;;;;;;;3.68;83.28;98005.28;5021818;28;20030;-84
2021/12/10 10:39:15;;;;;;;8.52;3.40;;;;;;;3.78;83.36;98008.41;5021832;28;20030;-84
2021/12/10 10:41:43;;;;;;;8.18;3.58;;;;;;;3.86;83.72;97996.69;5022514;28;20049;-85
2021/12/10 10:44:09;;;;;;;8.77;3.20;;;;;;;4.06;81.97;98006.44;5021911;28;20022;-84
2021/12/10 10:46:35;;;;;;;10.32;3.33;;;;;;;4.05;80.71;97999.44;5022834;28;20029;-84
2021/12/10 10:49:01;;;;;;;4.47;2.97;;;;;;;4.12;80.59;97992.13;5022162;28;20049;-85
2021/12/10 10:51:34;;;;;;;7.93;3.00;;;;;;;4.15;80.14;97993.78;5022155;28;20026;-83
2021/12/10 10:54:02;;;;;;;10.37;3.77;;;;;;;4.05;80.25;97994.16;5024127;28;20410;-84
2021/12/10 10:56:46;;;;;;;6.85;2.78;;;;;;;4.09;80.27;97994.91;5022808;28;20037;-81
2021/12/10 10:59:24;;;;;;;14.15;2.58;;;;;;;4.08;77.58;97994.03;5024630;28;20018;-84
2021/12/10 11:01:59;;;;;;;10.55;2.63;;;;;;;4.15;79.03;97988.50;5020301;28;20105;-84
2021/12/10 11:04:28;;;;;;;5.38;2.22;;;;;;;4.19;79.13;97979.53;5014092;28;20029;-84
2021/12/10 11:07:09;;;;;;;6.65;2.38;;;;;;;4.24;77.56;97977.56;5014856;28;20482;-83
2021/12/10 11:09:41;;;;;;;7.57;2.30;;;;;;;4.34;79.38;97968.31;5016499;28;20525;-83
2021/12/10 11:12:14;;;;;;;5.00;1.83;;;;;;;4.30;76.95;97979.97;5018403;28;20033;-84
2021/12/10 11:14:44;;;;;;;8.10;2.10;;;;;;;4.22;75.28;97990.84;5025682;28;20056;-84
2021/12/10 11:17:14;;;;;;;7.72;1.83;;;;;;;4.16;75.19;97987.56;5027583;28;20029;-83
2021/12/10 11:19:43;;;;;;;4.13;1.67;;;;;;;4.21;75.65;97983.81;5025783;28;20018;-84
2021/12/10 11:22:12;;;;;;;4.43;1.80;;;;;;;4.26;74.97;97978.34;5025735;28;20089;-83
2021/12/10 11:24:44;;;;;;;7.30;1.90;;;;;;;4.05;75.30;97983.59;5026104;28;20064;-83
2021/12/10 11:27:13;;;;;;;6.75;2.70;;;;;;;4.01;74.90;97982.00;5025651;28;20033;-84
2021/12/10 11:29:50;;;;;;;6.20;2.10;;;;;;;4.09;75.29;97973.75;5026760;28;20018;-84
2021/12/10 11:32:44;;;;;;;5.47;1.70;;;;;;;4.01;75.31;97982.00;5027276;28;20080;-85
2021/12/10 11:35:21;;;;;;;9.20;3.08;;;;;;;3.81;76.41;97983.66;5020736;28;20033;-84
2021/12/10 11:37:55;;;;;;;6.90;2.50;;;;;;;3.89;76.30;97978.09;5026198;28;20072;-83
2021/12/10 11:40:46;;;;;;;5.47;2.42;;;;;;;3.88;77.31;97982.50;5016661;28;20505;-83
2021/12/10 11:43:44;;;;;;;8.25;2.47;;;;;;;3.94;76.06;97988.44;5017759;28;20049;-83
2021/12/10 11:46:48;;;;;;;7.32;2.35;;;;;;;4.07;74.80;97986.19;5020364;28;20033;-84